アブダビ の空港の天気 - METARとTAF

アブダビ国際空港 ( OMAA / AUH ) - アラブ首長国連邦 アブダビ
飛行場実況気象(Metar)
観測時間09/18 21:00 GST (09/18 17:00 UTC)
風向・風速北 5m/s
視程6000m
天気現象
なし
気温33℃
湿度80%
気圧1005hPa
METAROMAA 181700Z 01009KT 6000 NSC 33/29 Q1005 BECMG 07006KT
過去の天気等 Google飛行場航空写真 Wunderground天気予報

過去48時間のMETAR

飛行場予報(TAF)
発表時間: 9/18 21:00 GST (9/18 17:00 UTC)
予報対象時間: 18日22時 GST ~ 20日4時 GST
風向・風速北 4m/s
視程6000m
なし
18日22時 GST ~ 18日24時 GST に徐々に
風向・風速東北東 4m/s
19日3時 GST から 確率 40% で
視程4000m
天気現象煙霧
19日4時 GST ~ 19日7時 GST に 確率 30% で一時的に
視程1500m
天気現象もや
19日5時 GST ~ 19日7時 GST に徐々に
風向・風速南南東 6m/s
19日14時 GST ~ 19日16時 GST に徐々に
風向・風速北 6m/s
19日21時 GST ~ 19日23時 GST に徐々に
風向・風速東北東 3m/s
TAF OMAA 181700Z 1818/2000 36008KT 6000 NSC
BECMG 1818/1820 06008KT
PROB40 1823/1904 4000 HZ
PROB30 TEMPO 1900/1903 1500 BR
BECMG 1901/1903 15012KT
BECMG 1910/1912 35012KT
BECMG 1917/1919 06006KT